Time;durP1;ratioP1;P1;durP2;ratioP2;P2;SDS_P1;SDS_P2;PMS_P1;PMS_P2;Temp;Humidity;BMP_temperature;BMP_pressure;BME280_temperature;BME280_humidity;BME280_pressure;Samples;Min_cycle;Max_cycle;Signal;HPM_P1;HPM_P2
2023/06/28 00:01:14;;;;;;;8.18;3.17;;;;;;;18.52;69.37;101763.41;5095962;28;20471;-62
2023/06/28 00:03:42;;;;;;;8.73;3.78;;;;;;;18.46;69.61;101759.38;5129682;27;20103;-62
2023/06/28 00:06:07;;;;;;;10.85;3.55;;;;;;;18.43;68.55;101765.00;5113280;28;20023;-62
2023/06/28 00:08:33;;;;;;;5.80;3.08;;;;;;;18.38;69.91;101751.06;5112948;28;20068;-62
2023/06/28 00:10:59;;;;;;;9.20;3.58;;;;;;;18.24;71.67;101759.44;5113817;28;20024;-62
2023/06/28 00:13:24;;;;;;;9.60;3.83;;;;;;;18.35;71.45;101756.69;5113009;28;20020;-62
2023/06/28 00:15:52;;;;;;;7.03;3.50;;;;;;;18.31;72.43;101763.31;5095269;28;20030;-62
2023/06/28 00:18:17;;;;;;;4.50;3.17;;;;;;;18.41;73.37;101769.66;5113533;28;20520;-62
2023/06/28 00:20:43;;;;;;;8.13;3.60;;;;;;;18.37;72.72;101770.91;5114034;27;20020;-62
2023/06/28 00:23:09;;;;;;;7.60;3.78;;;;;;;18.36;71.12;101771.91;5112811;28;20027;-62
2023/06/28 00:25:35;;;;;;;6.72;3.55;;;;;;;18.34;72.00;101763.94;5113031;28;20031;-62
2023/06/28 00:28:03;;;;;;;10.52;3.70;;;;;;;18.25;73.03;101766.50;5113214;28;20386;-62
2023/06/28 00:30:29;;;;;;;7.68;4.35;;;;;;;18.22;73.04;101756.84;5113322;28;20032;-62
2023/06/28 00:32:55;;;;;;;8.18;3.88;;;;;;;18.14;73.86;101761.97;5113152;28;20061;-62
2023/06/28 00:35:20;;;;;;;8.43;3.72;;;;;;;18.22;74.11;101772.16;5112491;28;20405;-62
2023/06/28 00:37:46;;;;;;;9.35;3.53;;;;;;;18.28;71.68;101775.19;5112914;27;20035;-62
2023/06/28 00:40:11;;;;;;;11.07;4.07;;;;;;;18.18;72.41;101771.56;5133485;27;20027;-62
2023/06/28 00:42:36;;;;;;;6.70;3.83;;;;;;;18.17;71.76;101772.50;5115351;27;20106;-62
2023/06/28 00:45:02;;;;;;;8.25;3.65;;;;;;;18.25;70.37;101772.75;5116725;27;20521;-62
2023/06/28 00:47:29;;;;;;;10.07;4.05;;;;;;;18.10;70.02;101769.47;5113063;28;20026;-62
2023/06/28 00:49:56;;;;;;;7.35;3.67;;;;;;;18.02;73.16;101773.75;5112951;28;20028;-62
2023/06/28 00:52:22;;;;;;;7.05;3.63;;;;;;;18.15;71.77;101769.09;5112360;28;20047;-62
2023/06/28 00:54:48;;;;;;;7.95;4.00;;;;;;;18.08;72.54;101760.63;5112650;28;20038;-62
2023/06/28 00:57:13;;;;;;;10.25;3.97;;;;;;;17.97;72.95;101765.16;5094556;28;20015;-62
2023/06/28 00:59:40;;;;;;;6.22;3.92;;;;;;;17.83;71.31;101763.59;5111763;27;20441;-62
2023/06/28 01:02:05;;;;;;;7.95;3.72;;;;;;;17.89;70.58;101763.09;5112848;28;20068;-62
2023/06/28 01:04:31;;;;;;;8.57;3.78;;;;;;;17.84;69.67;101760.78;5112234;28;20035;-62
2023/06/28 01:06:59;;;;;;;12.00;3.80;;;;;;;17.88;71.58;101764.06;5112269;28;20114;-62
2023/06/28 01:09:27;;;;;;;7.70;4.03;;;;;;;17.98;70.49;101777.66;5112295;28;20177;-62
2023/06/28 01:11:55;;;;;;;7.53;3.60;;;;;;;17.88;71.52;101783.78;5113291;27;20367;-62
2023/06/28 01:14:22;;;;;;;9.90;4.45;;;;;;;17.66;69.33;101771.13;5112382;28;20058;-62
2023/06/28 01:16:54;;;;;;;8.13;3.30;;;;;;;17.84;71.95;101762.59;5076972;28;20031;-62
2023/06/28 01:19:23;;;;;;;10.07;3.70;;;;;;;17.94;72.19;101774.34;5112429;28;20020;-62
2023/06/28 01:21:50;;;;;;;;;;;;;;;18.19;69.93;101778.63;5094287;28;20020;-62
2023/06/28 01:24:16;;;;;;;8.38;3.80;;;;;;;17.90;74.54;101765.66;5111928;28;19921;-62
2023/06/28 01:26:42;;;;;;;16.85;11.70;;;;;;;17.96;71.48;101775.09;5112511;28;20102;-62
2023/06/28 01:29:08;;;;;;;16.85;13.15;;;;;;;17.98;71.81;101765.06;5112808;28;20053;-62
2023/06/28 01:31:36;;;;;;;24.75;22.13;;;;;;;17.98;74.16;101769.59;5094115;28;20076;-62
2023/06/28 01:34:02;;;;;;;27.92;25.08;;;;;;;17.98;74.60;101769.59;5112105;28;20026;-62
2023/06/28 01:36:28;;;;;;;20.13;17.55;;;;;;;18.03;75.75;101770.06;5111929;28;20036;-62
2023/06/28 01:38:55;;;;;;;16.67;11.10;;;;;;;17.92;75.93;101762.88;5107040;28;20395;-62
2023/06/28 01:41:26;;;;;;;11.27;5.78;;;;;;;17.92;74.84;101760.16;5106343;28;20019;-62
2023/06/28 01:43:51;;;;;;;7.47;4.60;;;;;;;17.86;74.92;101760.66;5093204;28;20020;-62
2023/06/28 01:46:17;;;;;;;10.18;5.13;;;;;;;17.78;75.20;101755.88;5111432;28;20114;-62
2023/06/28 01:48:43;;;;;;;10.23;4.30;;;;;;;17.83;76.20;101760.91;5100954;28;20024;-62
2023/06/28 01:51:08;;;;;;;9.05;4.75;;;;;;;17.71;78.00;101754.63;5114558;28;20051;-62
2023/06/28 01:53:34;;;;;;;7.60;4.32;;;;;;;17.71;77.30;101757.31;5114747;28;20430;-62
2023/06/28 01:55:59;;;;;;;9.32;4.35;;;;;;;17.85;76.38;101754.44;5115606;28;20096;-62
2023/06/28 01:58:25;;;;;;;10.35;5.20;;;;;;;17.75;77.94;101753.41;5115124;28;20030;-62
2023/06/28 02:00:50;;;;;;;10.15;5.38;;;;;;;17.77;75.97;101750.59;5114543;28;20069;-62
2023/06/28 02:03:16;;;;;;;10.00;4.60;;;;;;;17.64;78.25;101746.16;5113778;28;20122;-62
2023/06/28 02:05:42;;;;;;;8.68;4.95;;;;;;;17.70;78.44;101740.28;5115350;28;20084;-62
2023/06/28 02:08:07;;;;;;;8.13;5.05;;;;;;;17.70;77.56;101742.13;5076421;28;20039;-62
2023/06/28 02:10:33;;;;;;;10.05;4.60;;;;;;;17.68;79.03;101742.25;5078034;28;20032;-62
2023/06/28 02:12:58;;;;;;;9.75;5.07;;;;;;;17.70;78.93;101731.38;5095399;28;20028;-62
2023/06/28 02:15:24;;;;;;;9.43;4.97;;;;;;;17.69;78.77;101730.50;5096728;28;20082;-62
2023/06/28 02:17:49;;;;;;;11.15;5.47;;;;;;;17.72;76.91;101740.19;5114758;28;20027;-62
2023/06/28 02:20:15;;;;;;;13.77;7.03;;;;;;;17.62;78.05;101749.97;5081304;28;20073;-62
2023/06/28 02:22:40;;;;;;;12.02;8.10;;;;;;;17.73;77.06;101730.28;5105890;28;20379;-62
2023/06/28 02:25:09;;;;;;;13.85;7.30;;;;;;;17.59;78.67;101731.34;5078902;28;20020;-62
2023/06/28 02:27:34;;;;;;;13.48;7.63;;;;;;;17.59;77.44;101725.97;5092518;28;20039;-62
2023/06/28 02:30:00;;;;;;;13.55;9.52;;;;;;;17.59;77.63;101728.66;5105283;28;20086;-62
2023/06/28 02:32:25;;;;;;;12.73;7.45;;;;;;;17.67;78.60;101728.91;5107649;28;20463;-62
2023/06/28 02:34:53;;;;;;;10.65;6.57;;;;;;;17.62;77.69;101723.06;5115411;28;20047;-62
2023/06/28 02:37:18;;;;;;;8.48;6.50;;;;;;;17.61;80.43;101726.72;5116347;27;20390;-62
2023/06/28 02:39:44;;;;;;;12.65;5.70;;;;;;;17.59;79.95;101726.84;5115016;28;20028;-62
2023/06/28 02:42:09;;;;;;;8.88;5.15;;;;;;;17.75;79.94;101726.47;5115608;28;20027;-62
2023/06/28 02:44:35;;;;;;;10.50;5.32;;;;;;;17.62;78.95;101723.06;5098080;28;20016;-62
2023/06/28 02:47:00;;;;;;;9.48;4.65;;;;;;;17.67;79.10;101728.91;5096773;28;20047;-62
2023/06/28 02:49:26;;;;;;;11.52;5.53;;;;;;;17.64;82.20;101732.69;5097000;28;20055;-62
2023/06/28 02:51:51;;;;;;;10.85;5.30;;;;;;;17.66;82.28;101729.91;5096875;28;20479;-62
2023/06/28 02:54:16;;;;;;;7.20;4.68;;;;;;;17.57;82.69;101726.09;5119210;27;20034;-62
2023/06/28 02:56:42;;;;;;;13.15;5.05;;;;;;;17.60;81.43;101728.56;5117522;27;20023;-62
2023/06/28 02:59:07;;;;;;;13.10;5.35;;;;;;;17.55;82.04;101724.50;5118391;27;20382;-62
2023/06/28 03:01:33;;;;;;;10.23;4.95;;;;;;;17.58;81.21;101732.34;5114833;28;20352;-62
2023/06/28 03:03:58;;;;;;;12.25;5.25;;;;;;;17.56;81.40;101729.78;5096416;28;20051;-62
2023/06/28 03:06:23;;;;;;;8.75;4.97;;;;;;;17.40;84.42;101727.41;5112950;28;20493;-62
2023/06/28 03:08:51;;;;;;;9.88;4.97;;;;;;;17.36;84.10;101725.09;5114513;28;20107;-62
2023/06/28 03:11:17;;;;;;;10.68;5.38;;;;;;;17.46;83.39;101728.78;5114035;28;20049;-63
2023/06/28 03:13:42;;;;;;;14.50;5.18;;;;;;;17.41;86.21;101729.16;5114405;28;20034;-62
2023/06/28 03:16:08;;;;;;;11.65;5.35;;;;;;;17.40;87.12;101729.25;5096388;28;20466;-62
2023/06/28 03:18:35;;;;;;;12.13;6.03;;;;;;;17.44;84.51;101733.41;5114677;28;20454;-62
2023/06/28 03:21:00;;;;;;;11.68;6.15;;;;;;;17.32;86.61;101729.84;5114870;28;20027;-62
2023/06/28 03:23:26;;;;;;;8.40;5.80;;;;;;;17.45;87.51;101727.06;5113972;28;20051;-62
2023/06/28 03:25:52;;;;;;;11.65;5.78;;;;;;;17.32;84.92;101729.00;5114785;28;20470;-63
2023/06/28 03:28:18;;;;;;;10.82;6.22;;;;;;;17.32;85.75;101720.91;5119449;27;20481;-63
2023/06/28 03:30:43;;;;;;;15.15;5.65;;;;;;;17.27;85.31;101726.66;5119149;27;20020;-63
2023/06/28 03:33:08;;;;;;;11.52;5.55;;;;;;;17.33;84.77;101722.66;5114274;28;20024;-62
2023/06/28 03:35:34;;;;;;;10.57;5.25;;;;;;;17.28;85.50;101720.31;5114578;28;20106;-62
2023/06/28 03:37:59;;;;;;;9.07;5.53;;;;;;;17.28;88.42;101725.69;5114067;28;20039;-62
2023/06/28 03:40:25;;;;;;;13.10;6.07;;;;;;;17.31;88.73;101720.06;5095914;28;20042;-63
2023/06/28 03:42:50;;;;;;;7.85;5.18;;;;;;;17.22;86.77;101720.78;5114078;28;20016;-62
2023/06/28 03:45:16;;;;;;;11.45;5.68;;;;;;;17.18;85.25;101722.00;5100347;27;20023;-62
2023/06/28 03:47:44;;;;;;;11.93;5.55;;;;;;;17.13;84.76;101722.34;5116492;27;20023;-62
2023/06/28 03:50:09;;;;;;;11.45;6.32;;;;;;;17.06;86.88;101715.75;5134807;27;20370;-62
2023/06/28 03:52:36;;;;;;;8.35;5.85;;;;;;;17.17;88.13;101722.97;5124155;27;20047;-62
2023/06/28 03:55:02;;;;;;;9.70;5.65;;;;;;;17.07;86.15;101721.97;5113614;28;20482;-62
2023/06/28 03:57:28;;;;;;;11.60;6.05;;;;;;;17.11;86.33;101718.06;5113906;28;20498;-62
2023/06/28 03:59:54;;;;;;;12.68;6.05;;;;;;;16.95;88.32;101703.13;5113541;28;20026;-62
2023/06/28 04:02:20;;;;;;;10.95;6.05;;;;;;;17.14;87.18;101709.75;5118949;27;20469;-62
2023/06/28 04:04:45;;;;;;;10.75;6.22;;;;;;;16.80;88.02;101706.97;5134088;27;20019;-62
2023/06/28 04:07:11;;;;;;;10.52;5.97;;;;;;;16.80;88.08;101713.19;5101231;28;20106;-62
2023/06/28 04:09:37;;;;;;;13.35;6.07;;;;;;;16.73;88.41;101700.31;5113231;28;20115;-62
2023/06/28 04:12:02;;;;;;;12.10;6.10;;;;;;;16.82;90.18;101705.00;5113405;28;20088;-62
2023/06/28 04:14:28;;;;;;;11.30;6.43;;;;;;;16.76;88.78;101695.56;5113149;28;20023;-62
2023/06/28 04:16:53;;;;;;;12.98;6.80;;;;;;;16.78;89.40;101698.16;5113564;28;20038;-62
2023/06/28 04:19:19;;;;;;;7.70;6.13;;;;;;;16.97;89.33;101706.56;5114082;27;20391;-62
2023/06/28 04:21:44;;;;;;;10.48;6.78;;;;;;;16.96;90.05;101704.81;5113158;28;20020;-62
2023/06/28 04:24:10;;;;;;;11.10;6.30;;;;;;;16.97;89.27;101702.97;5113165;28;20015;-62
2023/06/28 04:26:35;;;;;;;10.80;6.30;;;;;;;17.04;88.55;101706.94;5113553;28;20436;-62
2023/06/28 04:29:01;;;;;;;11.77;6.88;;;;;;;17.08;90.95;101702.16;5094613;28;20047;-62
2023/06/28 04:31:27;;;;;;;14.05;6.88;;;;;;;16.98;88.88;101708.25;5113075;28;20023;-62
2023/06/28 04:33:57;;;;;;;10.60;6.53;;;;;;;16.96;88.15;101704.81;5112960;28;20390;-64
2023/06/28 04:36:25;;;;;;;11.65;6.95;;;;;;;16.90;89.13;101702.59;5118844;27;20027;-62
2023/06/28 04:38:54;;;;;;;8.60;6.53;;;;;;;16.87;88.65;101702.84;5115133;27;20027;-62
2023/06/28 04:41:27;;;;;;;13.77;6.32;;;;;;;16.87;88.73;101710.03;5124361;27;20023;-62
2023/06/28 04:43:57;;;;;;;13.57;6.30;;;;;;;16.91;88.86;101712.41;5111695;28;20053;-63
2023/06/28 04:46:28;;;;;;;9.80;6.10;;;;;;;16.96;89.10;101712.03;5112914;28;20034;-62
2023/06/28 04:48:56;;;;;;;15.48;6.80;;;;;;;17.02;91.39;101707.03;5112673;28;20043;-62
2023/06/28 04:51:22;;;;;;;9.23;6.57;;;;;;;17.06;89.38;101710.38;5112175;28;20435;-62
2023/06/28 04:53:48;;;;;;;11.60;6.75;;;;;;;17.02;89.83;101704.34;5099898;27;20036;-62
2023/06/28 04:56:14;;;;;;;10.68;6.25;;;;;;;17.14;89.11;101705.25;5112572;28;20440;-62
2023/06/28 04:58:40;;;;;;;9.07;6.75;;;;;;;17.16;90.00;101714.06;5094155;28;20026;-62
2023/06/28 05:01:08;;;;;;;9.60;6.10;;;;;;;17.22;89.94;101718.09;5112785;28;20397;-62
2023/06/28 05:03:35;;;;;;;9.75;7.03;;;;;;;17.15;90.91;101701.59;5112497;28;20360;-62
2023/06/28 05:06:06;;;;;;;9.80;6.45;;;;;;;17.20;90.55;101707.44;5112729;28;20027;-62
2023/06/28 05:08:32;;;;;;;10.13;7.03;;;;;;;17.11;89.69;101712.69;5111996;28;20031;-62
2023/06/28 05:10:58;;;;;;;12.77;7.00;;;;;;;17.03;87.68;101706.09;5113094;28;20023;-62
2023/06/28 05:13:25;;;;;;;12.38;6.20;;;;;;;17.08;88.96;101712.94;5111693;28;20034;-62
2023/06/28 05:15:50;;;;;;;10.57;6.97;;;;;;;16.98;90.44;101710.09;5112287;28;20034;-62
2023/06/28 05:18:19;;;;;;;12.82;6.70;;;;;;;17.05;88.69;101724.75;5093856;28;20027;-62
2023/06/28 05:20:45;;;;;;;14.30;6.30;;;;;;;17.10;88.61;101719.06;5110611;28;20039;-62
2023/06/28 05:23:17;;;;;;;8.95;6.65;;;;;;;17.06;88.75;101712.19;5110014;28;20042;-62
2023/06/28 05:25:44;;;;;;;13.43;7.13;;;;;;;16.95;88.67;101710.31;5091910;28;20479;-62
2023/06/28 05:28:11;;;;;;;10.85;6.78;;;;;;;17.07;88.07;101719.28;5106818;28;20023;-62
2023/06/28 05:30:37;;;;;;;15.90;7.22;;;;;;;17.03;88.56;101716.84;5112095;28;20023;-62
2023/06/28 05:33:03;;;;;;;11.98;6.63;;;;;;;17.02;89.13;101714.25;5097268;28;20394;-62
2023/06/28 05:35:30;;;;;;;10.93;7.00;;;;;;;17.05;89.45;101708.63;5107495;28;20114;-62
2023/06/28 05:37:56;;;;;;;11.40;7.15;;;;;;;16.96;90.55;101709.34;5092715;28;20486;-62
2023/06/28 05:40:21;;;;;;;11.70;6.53;;;;;;;17.06;88.92;101710.38;5093543;28;20073;-62
2023/06/28 05:42:47;;;;;;;12.52;7.78;;;;;;;17.04;89.08;101706.94;5112270;28;20045;-62
2023/06/28 05:45:12;;;;;;;13.35;6.93;;;;;;;17.14;89.94;101701.69;5119552;28;20035;-62
2023/06/28 05:47:38;;;;;;;14.10;8.27;;;;;;;17.23;91.86;101698.28;5111029;28;20098;-62
2023/06/28 05:50:04;;;;;;;14.70;7.28;;;;;;;17.13;89.11;101694.63;5110771;28;20451;-62
2023/06/28 05:52:29;;;;;;;12.15;7.68;;;;;;;17.08;89.17;101694.09;5110512;28;20054;-62
2023/06/28 05:54:54;;;;;;;10.27;7.63;;;;;;;17.00;90.19;101694.69;5091687;28;20467;-62
2023/06/28 05:57:20;;;;;;;10.32;7.22;;;;;;;17.09;89.90;101693.13;5111491;28;20023;-62
2023/06/28 05:59:45;;;;;;;13.57;7.10;;;;;;;17.08;89.01;101697.66;5111580;28;20015;-62
2023/06/28 06:02:10;;;;;;;10.55;7.03;;;;;;;17.10;89.30;101700.22;5112277;28;20028;-62
2023/06/28 06:04:36;;;;;;;14.07;8.00;;;;;;;17.13;89.38;101697.31;5093726;28;20080;-62
2023/06/28 06:07:05;;;;;;;12.43;7.43;;;;;;;17.08;89.28;101692.28;5110306;28;20538;-62
2023/06/28 06:09:30;;;;;;;14.05;7.20;;;;;;;17.06;89.76;101691.56;5109642;28;20062;-62
2023/06/28 06:11:56;;;;;;;14.90;7.88;;;;;;;17.14;90.73;101693.63;5093202;28;20051;-62
2023/06/28 06:14:21;;;;;;;15.30;8.25;;;;;;;17.18;88.75;101695.13;5110939;28;20043;-62
2023/06/28 06:16:47;;;;;;;12.38;7.78;;;;;;;17.19;88.48;101697.69;5107985;28;20023;-62
2023/06/28 06:19:12;;;;;;;12.05;8.25;;;;;;;17.12;87.84;101680.31;5110484;28;20034;-63
2023/06/28 06:21:38;;;;;;;16.38;8.60;;;;;;;17.02;88.97;101680.16;5091065;28;20092;-62
2023/06/28 06:24:07;;;;;;;12.75;8.50;;;;;;;17.16;89.60;101689.84;5111203;28;20102;-62
2023/06/28 06:26:35;;;;;;;11.68;8.00;;;;;;;17.16;88.89;101699.75;5101762;28;20039;-62
2023/06/28 06:29:01;;;;;;;13.80;8.25;;;;;;;17.16;87.21;101691.69;5094061;28;20576;-62
2023/06/28 06:31:28;;;;;;;13.95;7.78;;;;;;;17.19;88.74;101700.38;5096308;28;20039;-62
2023/06/28 06:33:56;;;;;;;15.48;8.25;;;;;;;16.95;87.03;101673.56;5091456;28;20032;-62
2023/06/28 06:36:22;;;;;;;14.00;8.37;;;;;;;17.08;86.31;101700.34;5110788;27;20036;-62
2023/06/28 06:38:47;;;;;;;11.23;8.05;;;;;;;17.10;86.87;101698.41;5076053;28;20119;-62
2023/06/28 06:41:12;;;;;;;11.88;7.85;;;;;;;17.11;87.13;101701.94;5094575;28;20062;-62
2023/06/28 06:43:38;;;;;;;14.18;8.60;;;;;;;17.06;88.19;101702.31;5115550;28;20026;-62
2023/06/28 06:46:04;;;;;;;12.00;8.07;;;;;;;17.07;87.98;101704.00;5115361;28;20390;-62
2023/06/28 06:48:29;;;;;;;15.30;8.25;;;;;;;17.13;89.31;101700.00;5115154;28;20095;-62
2023/06/28 06:50:54;;;;;;;12.23;8.18;;;;;;;17.19;88.70;101707.59;5112631;28;20031;-62
2023/06/28 06:53:22;;;;;;;15.13;9.10;;;;;;;17.29;89.24;101703.19;5107458;28;20087;-62
2023/06/28 06:55:52;;;;;;;13.35;8.65;;;;;;;17.21;87.86;101708.34;5121138;27;20035;-62
2023/06/28 06:58:18;;;;;;;14.02;8.45;;;;;;;17.30;89.73;101698.69;5114952;27;20397;-62
2023/06/28 07:00:43;;;;;;;18.75;8.63;;;;;;;17.36;89.72;101711.66;5102920;28;20108;-62
2023/06/28 07:03:08;;;;;;;17.08;8.05;;;;;;;17.38;86.73;101710.56;5113694;28;20032;-62
2023/06/28 07:05:34;;;;;;;11.38;8.00;;;;;;;17.36;86.98;101708.97;5095426;27;20512;-62
2023/06/28 07:07:59;;;;;;;14.10;7.72;;;;;;;17.34;87.29;101711.75;5110470;27;20016;-62
2023/06/28 07:10:27;;;;;;;12.73;8.50;;;;;;;17.30;88.39;101721.06;5103209;28;20126;-62
2023/06/28 07:12:52;;;;;;;13.63;7.97;;;;;;;17.40;87.18;101724.72;5090396;28;20024;-62
2023/06/28 07:15:18;;;;;;;11.63;7.45;;;;;;;17.34;87.51;101721.66;5103250;27;20043;-62
2023/06/28 07:17:43;;;;;;;16.85;7.38;;;;;;;17.40;87.92;101718.50;5114612;27;20069;-62
2023/06/28 07:20:09;;;;;;;13.07;7.32;;;;;;;17.41;87.80;101725.59;5113053;27;20074;-62
2023/06/28 07:22:34;;;;;;;11.25;7.05;;;;;;;17.32;84.84;101721.78;5113284;28;20417;-62
2023/06/28 07:25:02;;;;;;;12.48;7.57;;;;;;;17.41;85.78;101726.47;5107710;27;20023;-62
2023/06/28 07:27:29;;;;;;;12.95;7.28;;;;;;;17.27;84.72;101720.44;5112495;28;20023;-62
2023/06/28 07:29:55;;;;;;;13.77;6.82;;;;;;;17.30;85.47;101729.13;5092095;27;20027;-62
2023/06/28 07:32:21;;;;;;;9.05;6.28;;;;;;;17.35;85.19;101728.75;5112542;28;20023;-63
2023/06/28 07:34:46;;;;;;;12.07;6.80;;;;;;;17.29;83.99;101726.53;5094248;27;20028;-62
2023/06/28 07:37:12;;;;;;;16.13;7.22;;;;;;;17.25;84.49;101724.09;5113686;28;20065;-62
2023/06/28 07:39:37;;;;;;;10.25;6.57;;;;;;;17.31;83.79;101721.91;5093535;28;20486;-62
2023/06/28 07:42:03;;;;;;;9.30;6.47;;;;;;;17.30;84.14;101726.44;5095511;28;20027;-62
2023/06/28 07:44:30;;;;;;;13.30;7.30;;;;;;;17.22;81.82;101718.09;5103501;28;20016;-62
2023/06/28 07:46:56;;;;;;;11.38;6.95;;;;;;;17.29;83.33;101726.53;5093390;28;20028;-62
2023/06/28 07:49:23;;;;;;;8.95;6.82;;;;;;;17.28;82.63;101722.16;5093459;28;20481;-62
2023/06/28 07:51:49;;;;;;;16.23;7.20;;;;;;;17.30;82.33;101726.44;5098071;28;20070;-62
2023/06/28 07:54:17;;;;;;;9.88;6.85;;;;;;;17.27;81.85;101715.06;5113675;28;20051;-62
2023/06/28 07:56:42;;;;;;;13.73;7.18;;;;;;;17.32;81.72;101720.91;5095770;28;20030;-62
2023/06/28 07:59:07;;;;;;;12.50;6.60;;;;;;;17.34;82.02;101719.84;5095696;28;20106;-62
2023/06/28 08:01:33;;;;;;;10.82;6.45;;;;;;;17.41;81.86;101728.28;5113562;28;20114;-62
2023/06/28 08:04:01;;;;;;;13.70;7.22;;;;;;;17.34;80.55;101727.03;5113870;28;20114;-62
2023/06/28 08:06:26;;;;;;;14.98;7.10;;;;;;;17.28;81.31;101714.09;5113818;28;20016;-62
2023/06/28 08:08:52;;;;;;;12.65;7.05;;;;;;;17.34;80.28;101725.22;5078090;28;20019;-62
2023/06/28 08:11:17;;;;;;;11.25;7.00;;;;;;;17.39;79.92;101723.03;5113480;28;20016;-62
2023/06/28 08:13:43;;;;;;;13.43;6.47;;;;;;;17.39;80.42;101725.72;5095044;28;20030;-62
2023/06/28 08:16:10;;;;;;;12.73;6.78;;;;;;;17.43;80.50;101726.31;5095484;28;20024;-62
2023/06/28 08:18:35;;;;;;;10.80;6.78;;;;;;;17.39;80.29;101724.88;5113613;28;20028;-62
2023/06/28 08:21:01;;;;;;;12.68;7.20;;;;;;;17.36;80.39;101719.72;5112982;28;20028;-62
2023/06/28 08:23:29;;;;;;;9.95;6.57;;;;;;;17.38;79.85;101725.81;5113118;28;20020;-62
2023/06/28 08:25:54;;;;;;;14.57;6.55;;;;;;;17.38;80.99;101709.69;5113517;28;20031;-62
2023/06/28 08:28:19;;;;;;;13.50;7.20;;;;;;;17.49;80.76;101707.00;5095267;28;20475;-62
2023/06/28 08:30:47;;;;;;;15.43;7.45;;;;;;;17.59;81.26;101713.41;5113143;28;20027;-62
2023/06/28 08:33:15;;;;;;;10.88;6.50;;;;;;;17.63;79.63;101719.38;5112769;28;20032;-62
2023/06/28 08:35:40;;;;;;;9.00;6.05;;;;;;;17.68;79.18;101718.06;5113196;28;20035;-62
2023/06/28 08:38:08;;;;;;;13.35;6.30;;;;;;;17.84;79.42;101720.41;5112664;28;20081;-62
2023/06/28 08:40:34;;;;;;;14.10;5.82;;;;;;;17.92;79.40;101731.41;5094480;28;20023;-62
2023/06/28 08:43:01;;;;;;;9.60;5.72;;;;;;;17.91;77.54;101729.72;5094733;28;20039;-62
2023/06/28 08:45:28;;;;;;;14.13;6.13;;;;;;;17.97;78.97;101714.91;5112974;28;20355;-62
2023/06/28 08:47:54;;;;;;;12.15;6.32;;;;;;;18.06;77.99;101714.16;5113069;28;20024;-62
2023/06/28 08:50:21;;;;;;;11.15;6.18;;;;;;;18.02;78.84;101687.59;5111647;28;20023;-62
2023/06/28 08:52:47;;;;;;;11.82;6.80;;;;;;;18.17;77.40;101707.88;5112353;28;20040;-62
2023/06/28 08:55:13;;;;;;;9.65;5.80;;;;;;;18.32;77.12;101719.25;5112390;28;20023;-62
2023/06/28 08:57:40;;;;;;;15.35;6.22;;;;;;;18.41;76.84;101713.09;5112335;28;20019;-62
2023/06/28 09:00:10;;;;;;;12.90;6.63;;;;;;;18.51;75.75;101721.28;5112281;28;20038;-62
2023/06/28 09:02:36;;;;;;;9.43;5.72;;;;;;;18.66;77.11;101728.09;5094770;28;20073;-62
2023/06/28 09:05:03;;;;;;;9.32;6.35;;;;;;;18.65;74.79;101726.41;5112391;28;20024;-62
2023/06/28 09:07:30;;;;;;;11.73;6.00;;;;;;;18.67;75.59;101721.72;5112722;28;20028;-62
2023/06/28 09:09:56;;;;;;;11.48;5.70;;;;;;;18.81;74.85;101726.84;5094188;28;20535;-62
2023/06/28 09:12:23;;;;;;;13.45;6.35;;;;;;;18.82;73.59;101722.31;5112256;28;20035;-62
2023/06/28 09:14:49;;;;;;;12.82;5.80;;;;;;;18.80;73.12;101717.06;5112467;28;20023;-62
2023/06/28 09:17:18;;;;;;;9.45;5.65;;;;;;;18.93;74.55;101702.53;5094394;28;20028;-62
2023/06/28 09:19:44;;;;;;;13.77;6.32;;;;;;;18.89;71.80;101704.63;5112204;28;20099;-62
2023/06/28 09:22:12;;;;;;;10.68;5.38;;;;;;;18.96;71.88;101708.50;5112174;28;20431;-62
2023/06/28 09:24:38;;;;;;;11.75;5.43;;;;;;;18.97;72.64;101712.94;5093767;28;20133;-62
2023/06/28 09:27:05;;;;;;;9.63;5.57;;;;;;;18.90;71.40;101710.88;5094091;28;20058;-62
2023/06/28 09:29:31;;;;;;;12.50;5.40;;;;;;;19.05;71.70;101704.19;5094129;28;20500;-62
2023/06/28 09:32:00;;;;;;;7.97;5.15;;;;;;;19.11;71.96;101713.59;5111696;28;20471;-62
2023/06/28 09:34:25;;;;;;;15.68;5.70;;;;;;;19.15;72.10;101707.81;5093798;28;20058;-62
2023/06/28 09:36:58;;;;;;;9.45;5.47;;;;;;;19.18;71.12;101714.78;5094064;28;20059;-62
2023/06/28 09:39:24;;;;;;;11.70;5.25;;;;;;;19.26;70.54;101713.13;5093293;28;20066;-62
2023/06/28 09:41:50;;;;;;;9.32;4.78;;;;;;;19.28;70.30;101703.06;5111737;28;20356;-62
2023/06/28 09:44:33;;;;;;;8.95;5.45;;;;;;;19.43;69.50;101719.75;5093966;28;20026;-62
2023/06/28 09:47:01;;;;;;;11.27;5.32;;;;;;;19.31;68.93;101722.69;5093913;28;20395;-62
2023/06/28 09:49:27;;;;;;;14.35;5.85;;;;;;;19.32;69.91;101716.28;5111749;28;20023;-62
2023/06/28 09:51:59;;;;;;;10.20;5.10;;;;;;;19.38;68.87;101711.19;5111442;28;20039;-62
2023/06/28 09:54:40;;;;;;;14.88;5.38;;;;;;;19.53;69.54;101706.34;5111563;28;20027;-62
2023/06/28 09:57:06;;;;;;;11.25;4.85;;;;;;;19.62;69.86;101694.75;5112064;28;20110;-62
2023/06/28 09:59:33;;;;;;;12.35;4.60;;;;;;;19.84;69.46;101700.97;5111566;28;20257;-62
2023/06/28 10:02:03;;;;;;;10.13;4.47;;;;;;;20.03;67.33;101703.75;5111785;28;20020;-62
2023/06/28 10:04:30;;;;;;;9.02;4.60;;;;;;;20.06;67.29;101695.38;5111177;28;20047;-62
2023/06/28 10:07:00;;;;;;;9.95;4.35;;;;;;;20.25;66.25;101699.94;5111817;28;20024;-62
2023/06/28 10:09:37;;;;;;;7.20;4.45;;;;;;;20.28;63.91;101702.38;5114622;28;20027;-62
2023/06/28 10:12:25;;;;;;;10.77;4.45;;;;;;;20.56;64.94;101695.34;5115712;28;20375;-62
2023/06/28 10:15:08;;;;;;;8.43;4.15;;;;;;;20.69;65.62;101702.31;5115671;28;20106;-62
2023/06/28 10:17:35;;;;;;;9.20;4.30;;;;;;;20.76;64.39;101698.88;5115912;28;20035;-62
2023/06/28 10:20:03;;;;;;;12.05;4.47;;;;;;;20.74;62.44;101698.19;5115565;28;20080;-62
2023/06/28 10:22:29;;;;;;;11.02;4.45;;;;;;;20.75;61.79;101680.97;5115862;28;20019;-63
2023/06/28 10:24:56;;;;;;;14.50;4.88;;;;;;;20.79;60.25;101698.59;5115162;28;20047;-63
2023/06/28 10:27:22;;;;;;;8.73;4.28;;;;;;;20.72;60.51;101693.91;5097475;28;20507;-63
2023/06/28 10:29:50;;;;;;;10.88;4.40;;;;;;;20.81;61.57;101695.78;5115566;28;20094;-63
2023/06/28 10:32:16;;;;;;;12.20;4.80;;;;;;;20.96;61.03;101688.91;5096989;28;20557;-62
2023/06/28 10:34:42;;;;;;;10.45;4.18;;;;;;;21.09;61.12;101688.63;5097321;28;20026;-62
2023/06/28 10:37:08;;;;;;;12.35;4.65;;;;;;;21.19;58.22;101689.47;5115826;28;20032;-63
2023/06/28 10:39:35;;;;;;;14.85;4.75;;;;;;;21.26;58.76;101681.59;5115058;28;20024;-62
2023/06/28 10:42:00;;;;;;;9.43;4.43;;;;;;;21.30;58.31;101688.44;5096797;28;20085;-63
2023/06/28 10:44:26;;;;;;;10.63;4.63;;;;;;;21.38;59.33;101690.44;5115520;28;20020;-63
2023/06/28 10:47:16;;;;;;;11.27;4.50;;;;;;;21.55;59.34;101685.09;5080353;28;20020;-63
2023/06/28 10:49:42;;;;;;;9.63;4.93;;;;;;;21.55;57.80;101686.97;5097157;28;20027;-63
2023/06/28 10:52:14;;;;;;;7.65;4.15;;;;;;;21.70;58.53;101685.47;5096444;28;20043;-63
2023/06/28 10:54:40;;;;;;;13.38;4.25;;;;;;;21.96;58.25;101684.78;5096720;28;20031;-63
2023/06/28 10:57:10;;;;;;;10.18;4.45;;;;;;;22.04;57.53;101692.19;5115314;28;20464;-63
2023/06/28 10:59:36;;;;;;;;;;;;;;;22.44;58.27;101687.25;5115371;28;20028;-63
2023/06/28 11:02:02;;;;;;;12.10;4.30;;;;;;;22.55;56.47;101688.00;5096139;28;19976;-63
2023/06/28 11:04:27;;;;;;;10.57;4.53;;;;;;;22.56;55.91;101678.84;5115018;28;20020;-63
2023/06/28 11:07:16;;;;;;;10.05;4.30;;;;;;;22.76;56.42;101677.69;5096624;28;20023;-63
2023/06/28 11:10:10;;;;;;;10.65;4.28;;;;;;;23.07;56.63;101672.72;5096441;28;20019;-63
2023/06/28 11:12:38;;;;;;;8.88;5.20;;;;;;;23.24;54.76;101660.13;5094506;28;20024;-63
2023/06/28 11:15:28;;;;;;;10.23;4.10;;;;;;;23.38;55.46;101663.25;5075938;28;20111;-63
2023/06/28 11:17:53;;;;;;;14.88;4.97;;;;;;;23.29;53.70;101665.06;5071089;28;20062;-63